< < Back
Terminal Aerodrome Forecast


Current Version              Previous Versions:   1  2  3  4  5  6  7  8  9  

Terminal Aerodrome Forecast

402
FTUS42 KFFC 201700
TAFPDK
TAF
KPDK 201729Z 2018/2118 22006KT P6SM FEW040 FEW250
     FM210000 00000KT P6SM SCT100
     FM211400 31004KT P6SM FEW100
     FM211700 31008KT P6SM FEW250=

Latest METAR

057
SAUS70 KWBC 210400 RRG
MTRPDK
METAR KPDK 210353Z AUTO 00000KT 9SM CLR 12/10 A3003 RMK AO2 SLP163
T01220100


USA.gov is the U.S. government's official web portal to all federal, state and local government web resources and services.